Time;durP1;ratioP1;P1;durP2;ratioP2;P2;SDS_P1;SDS_P2;PMS_P1;PMS_P2;Temp;Humidity;BMP_temperature;BMP_pressure;BME280_temperature;BME280_humidity;BME280_pressure;Samples;Min_cycle;Max_cycle;Signal;HPM_P1;HPM_P2
2023/09/13 00:02:18;;;;;;;;;;;18.20;99.90;;;;;;4996885;28;19922;-42
2023/09/13 00:04:44;;;;;;;;;;;18.10;99.90;;;;;;4996610;28;20343;-42
2023/09/13 00:07:10;;;;;;;;;;;18.20;99.90;;;;;;5011483;28;20008;-42
2023/09/13 00:09:37;;;;;;;;;;;18.10;99.90;;;;;;4996180;28;19921;-42
2023/09/13 00:12:03;;;;;;;;;;;18.10;99.90;;;;;;4995868;28;20359;-43
2023/09/13 00:14:28;;;;;;;;;;;18.10;99.90;;;;;;4996004;28;20001;-42
2023/09/13 00:16:55;;;;;;;;;;;18.00;99.90;;;;;;4996156;28;20359;-42
2023/09/13 00:19:20;;;;;;;;;;;18.10;99.90;;;;;;4996146;28;19921;-42
2023/09/13 00:21:46;;;;;;;;;;;18.00;99.90;;;;;;4996045;28;19929;-44
2023/09/13 00:24:11;;;;;;;;;;;18.00;99.90;;;;;;4995972;28;19928;-42
2023/09/13 00:26:37;;;;;;;;;;;18.00;99.90;;;;;;4995946;28;19961;-42
2023/09/13 00:29:02;;;;;;;;;;;18.00;99.90;;;;;;4995726;28;19922;-42
2023/09/13 00:31:28;;;;;;;;;;;18.00;99.90;;;;;;4995792;28;19929;-42
2023/09/13 00:33:53;;;;;;;;;;;18.00;99.90;;;;;;4995844;28;19980;-42
2023/09/13 00:36:19;;;;;;;;;;;18.00;99.90;;;;;;4995925;28;20090;-42
2023/09/13 00:38:44;;;;;;;;;;;17.90;99.90;;;;;;4995749;28;20282;-42
2023/09/13 00:41:10;;;;;;;;;;;17.90;99.90;;;;;;4995700;28;19992;-42
2023/09/13 00:43:36;;;;;;;;;;;17.90;99.90;;;;;;4995485;28;20016;-42
2023/09/13 00:46:02;;;;;;;;;;;17.90;99.90;;;;;;4995735;28;19976;-42
2023/09/13 00:48:28;;;;;;;;;;;17.90;99.90;;;;;;4995542;28;19929;-42
2023/09/13 00:50:54;;;;;;;;;;;17.90;99.90;;;;;;4995451;28;19925;-42
2023/09/13 00:53:20;;;;;;;;;;;17.80;99.90;;;;;;4995288;28;20071;-42
2023/09/13 00:55:50;;;;;;;;;;;17.80;99.90;;;;;;4995254;28;20290;-42
2023/09/13 00:58:15;;;;;;;;;;;17.80;99.90;;;;;;4995184;28;19921;-42
2023/09/13 01:00:41;;;;;;;;;;;17.80;99.90;;;;;;4995066;28;20280;-43
2023/09/13 01:03:07;;;;;;;;;;;17.80;99.90;;;;;;4995339;28;19921;-42
2023/09/13 01:05:34;;;;;;;;;;;17.80;99.90;;;;;;4995227;28;20366;-42
2023/09/13 01:07:59;;;;;;;;;;;17.70;99.90;;;;;;4995156;28;20366;-42
2023/09/13 01:10:25;;;;;;;;;;;17.70;99.90;;;;;;4994953;28;19929;-42
2023/09/13 01:12:50;;;;;;;;;;;17.70;99.90;;;;;;4994857;28;19976;-42
2023/09/13 01:15:16;;;;;;;;;;;17.70;99.90;;;;;;4995031;28;19951;-42
2023/09/13 01:17:41;;;;;;;;;;;17.70;99.90;;;;;;4994984;28;19929;-42
2023/09/13 01:20:18;;;;;;;;;;;17.70;99.90;;;;;;4995034;28;20020;-42
2023/09/13 01:22:49;;;;;;;;;;;17.70;99.90;;;;;;4995018;28;19922;-42
2023/09/13 01:25:17;;;;;;;;;;;17.60;99.90;;;;;;4995042;28;19921;-42
2023/09/13 01:27:48;;;;;;;;;;;17.60;99.90;;;;;;4994932;28;19922;-43
2023/09/13 01:30:14;;;;;;;;;;;17.60;99.90;;;;;;4994957;28;20434;-42
2023/09/13 01:32:42;;;;;;;;;;;17.60;99.90;;;;;;4994662;28;19922;-42
2023/09/13 01:35:08;;;;;;;;;;;17.60;99.90;;;;;;4994952;28;19929;-43
2023/09/13 01:37:34;;;;;;;;;;;17.50;99.90;;;;;;4994118;28;19922;-42
2023/09/13 01:40:00;;;;;;;;;;;17.60;99.90;;;;;;4994584;28;19922;-42
2023/09/13 01:42:27;;;;;;;;;;;17.60;99.90;;;;;;4977379;28;19976;-42
2023/09/13 01:44:53;;;;;;;;;;;17.60;99.90;;;;;;4994670;28;19922;-42
2023/09/13 01:47:19;;;;;;;;;;;17.60;99.90;;;;;;4994612;28;19928;-42
2023/09/13 01:49:45;;;;;;;;;;;17.50;99.90;;;;;;4994498;28;19941;-42
2023/09/13 01:52:11;;;;;;;;;;;17.50;99.90;;;;;;4994604;28;19929;-42
2023/09/13 01:54:36;;;;;;;;;;;17.50;99.90;;;;;;4994564;28;19921;-42
2023/09/13 01:57:02;;;;;;;;;;;17.50;99.90;;;;;;4994488;28;19926;-42
2023/09/13 01:59:28;;;;;;;;;;;17.50;99.90;;;;;;4994674;28;19969;-42
2023/09/13 02:01:53;;;;;;;;;;;17.50;99.90;;;;;;4977050;28;20379;-43
2023/09/13 02:04:19;;;;;;;;;;;17.50;99.90;;;;;;4994499;28;19921;-42
2023/09/13 02:06:45;;;;;;;;;;;17.50;99.90;;;;;;4977147;28;19929;-42
2023/09/13 02:09:11;;;;;;;;;;;17.40;99.90;;;;;;5009642;28;19928;-42
2023/09/13 02:11:36;;;;;;;;;;;17.50;99.90;;;;;;4994417;28;20025;-44
2023/09/13 02:14:02;;;;;;;;;;;17.40;99.90;;;;;;4994419;28;20348;-42
2023/09/13 02:16:28;;;;;;;;;;;17.50;99.90;;;;;;4994413;28;20333;-43
2023/09/13 02:18:53;;;;;;;;;;;17.40;99.90;;;;;;4994380;28;19925;-42
2023/09/13 02:21:19;;;;;;;;;;;17.40;99.90;;;;;;4994332;28;20366;-42
2023/09/13 02:23:45;;;;;;;;;;;17.50;99.90;;;;;;4977149;28;20012;-42
2023/09/13 02:26:23;;;;;;;;;;;17.40;99.90;;;;;;4994216;28;19922;-42
2023/09/13 02:28:49;;;;;;;;;;;17.40;99.90;;;;;;4994481;28;19922;-42
2023/09/13 02:31:24;;;;;;;;;;;17.40;99.90;;;;;;4994136;28;20389;-42
2023/09/13 02:33:50;;;;;;;;;;;17.40;99.90;;;;;;4994446;28;20314;-42
2023/09/13 02:36:15;;;;;;;;;;;17.40;99.90;;;;;;4994231;28;19922;-43
2023/09/13 02:38:41;;;;;;;;;;;17.40;99.90;;;;;;4993918;28;19922;-42
2023/09/13 02:41:06;;;;;;;;;;;17.40;99.90;;;;;;4994545;28;19995;-43
2023/09/13 02:43:32;;;;;;;;;;;17.40;99.90;;;;;;4994110;28;20306;-42
2023/09/13 02:45:58;;;;;;;;;;;17.40;99.90;;;;;;4994030;28;19976;-42
2023/09/13 02:48:23;;;;;;;;;;;17.40;99.90;;;;;;4994142;28;19929;-42
2023/09/13 02:50:49;;;;;;;;;;;17.40;99.90;;;;;;4997397;28;20374;-43
2023/09/13 02:53:14;;;;;;;;;;;17.40;99.90;;;;;;4996220;28;20031;-42
2023/09/13 02:55:40;;;;;;;;;;;17.40;99.90;;;;;;4997693;28;19922;-43
2023/09/13 02:58:06;;;;;;;;;;;17.40;99.90;;;;;;5013081;28;19956;-42
2023/09/13 03:00:31;;;;;;;;;;;17.40;99.90;;;;;;4997295;28;19948;-42
2023/09/13 03:02:58;;;;;;;;;;;17.30;99.90;;;;;;4997317;28;20353;-43
2023/09/13 03:05:23;;;;;;;;;;;17.40;99.90;;;;;;4980431;28;20001;-42
2023/09/13 03:07:49;;;;;;;;;;;17.30;99.90;;;;;;4997375;28;20374;-42
2023/09/13 03:10:14;;;;;;;;;;;17.30;99.90;;;;;;4997448;28;19956;-43
2023/09/13 03:12:40;;;;;;;;;;;17.30;99.90;;;;;;4997548;28;20385;-42
2023/09/13 03:15:06;;;;;;;;;;;17.30;99.90;;;;;;4997427;28;19922;-42
2023/09/13 03:17:31;;;;;;;;;;;17.30;99.90;;;;;;4997167;28;20024;-43
2023/09/13 03:19:57;;;;;;;;;;;17.20;99.90;;;;;;4997243;28;19941;-42
2023/09/13 03:22:22;;;;;;;;;;;17.20;99.90;;;;;;4997070;28;19921;-42
2023/09/13 03:24:48;;;;;;;;;;;17.20;99.90;;;;;;4997088;28;19928;-42
2023/09/13 03:27:13;;;;;;;;;;;17.10;99.90;;;;;;4997120;28;19965;-43
2023/09/13 03:29:39;;;;;;;;;;;17.10;99.90;;;;;;4996877;28;20370;-43
2023/09/13 03:32:05;;;;;;;;;;;17.10;99.90;;;;;;4996895;28;19922;-43
2023/09/13 03:34:31;;;;;;;;;;;17.10;99.90;;;;;;4996752;28;19984;-43
2023/09/13 03:36:56;;;;;;;;;;;17.10;99.90;;;;;;4996694;28;20375;-42
2023/09/13 03:39:22;;;;;;;;;;;17.00;99.90;;;;;;4996805;28;20366;-42
2023/09/13 03:41:47;;;;;;;;;;;17.00;99.90;;;;;;4996776;28;19926;-42
2023/09/13 03:44:13;;;;;;;;;;;17.00;99.90;;;;;;4996948;28;19929;-43
2023/09/13 03:46:38;;;;;;;;;;;17.00;99.90;;;;;;4996858;28;19975;-42
2023/09/13 03:49:04;;;;;;;;;;;16.90;99.90;;;;;;4996587;28;20367;-42
2023/09/13 03:51:30;;;;;;;;;;;16.90;99.90;;;;;;4996367;28;19921;-42
2023/09/13 03:53:57;;;;;;;;;;;16.90;99.90;;;;;;4996349;28;19922;-42
2023/09/13 03:56:23;;;;;;;;;;;16.90;99.90;;;;;;4996498;28;19922;-42
2023/09/13 03:58:49;;;;;;;;;;;16.90;99.90;;;;;;4996478;28;20398;-42
2023/09/13 04:01:14;;;;;;;;;;;16.80;99.90;;;;;;4996096;28;19929;-42
2023/09/13 04:03:40;;;;;;;;;;;16.80;99.90;;;;;;4996223;28;19921;-43
2023/09/13 04:06:05;;;;;;;;;;;16.80;99.90;;;;;;4996177;28;19922;-42
2023/09/13 04:08:31;;;;;;;;;;;16.80;99.90;;;;;;4979299;28;19922;-42
2023/09/13 04:10:57;;;;;;;;;;;16.80;99.90;;;;;;4996479;28;20374;-42
2023/09/13 04:13:22;;;;;;;;;;;16.80;99.90;;;;;;4996263;28;19921;-43
2023/09/13 04:15:48;;;;;;;;;;;16.70;99.90;;;;;;4996311;28;19922;-42
2023/09/13 04:18:13;;;;;;;;;;;16.70;99.90;;;;;;4996071;28;19922;-43
2023/09/13 04:20:41;;;;;;;;;;;16.70;99.90;;;;;;4996052;28;20298;-42
2023/09/13 04:23:07;;;;;;;;;;;16.70;99.90;;;;;;4996050;28;19921;-43
2023/09/13 04:25:32;;;;;;;;;;;16.70;99.90;;;;;;4996288;28;19929;-41
2023/09/13 04:27:58;;;;;;;;;;;16.70;99.90;;;;;;4995934;28;20440;-41
2023/09/13 04:30:23;;;;;;;;;;;16.60;99.90;;;;;;4995787;28;19921;-42
2023/09/13 04:32:49;;;;;;;;;;;16.60;99.90;;;;;;4995665;28;19922;-42
2023/09/13 04:35:15;;;;;;;;;;;16.60;99.90;;;;;;4995535;28;19976;-42
2023/09/13 04:37:41;;;;;;;;;;;16.50;99.90;;;;;;4995789;28;19921;-43
2023/09/13 04:40:07;;;;;;;;;;;16.50;99.90;;;;;;4995730;28;19926;-42
2023/09/13 04:42:42;;;;;;;;;;;16.50;99.90;;;;;;4995735;28;19921;-42
2023/09/13 04:45:08;;;;;;;;;;;16.40;99.90;;;;;;4995494;28;20397;-42
2023/09/13 04:47:37;;;;;;;;;;;16.40;99.90;;;;;;4995550;28;19922;-44
2023/09/13 04:50:03;;;;;;;;;;;16.30;99.90;;;;;;4995265;28;19922;-42
2023/09/13 04:52:29;;;;;;;;;;;16.30;99.90;;;;;;4995103;28;20323;-42
2023/09/13 04:54:54;;;;;;;;;;;16.20;99.90;;;;;;4995639;28;19945;-42
2023/09/13 04:57:20;;;;;;;;;;;16.10;99.90;;;;;;4995328;28;20382;-42
2023/09/13 04:59:47;;;;;;;;;;;16.00;99.90;;;;;;4995194;28;20343;-42
2023/09/13 05:02:13;;;;;;;;;;;16.00;99.90;;;;;;4993570;28;20012;-44
2023/09/13 05:04:39;;;;;;;;;;;15.90;99.90;;;;;;4995123;28;20032;-43
2023/09/13 05:07:05;;;;;;;;;;;15.80;99.90;;;;;;4995162;28;19921;-43
2023/09/13 05:09:30;;;;;;;;;;;15.80;99.90;;;;;;4978064;28;20236;-43
2023/09/13 05:11:56;;;;;;;;;;;15.70;99.90;;;;;;4994311;28;19929;-42
2023/09/13 05:14:21;;;;;;;;;;;15.60;99.90;;;;;;4995104;28;19922;-44
2023/09/13 05:16:47;;;;;;;;;;;15.50;99.90;;;;;;4994973;28;19925;-43
2023/09/13 05:19:13;;;;;;;;;;;15.50;99.90;;;;;;4994773;28;19922;-42
2023/09/13 05:21:38;;;;;;;;;;;15.50;99.90;;;;;;4977855;28;19928;-42
2023/09/13 05:24:04;;;;;;;;;;;15.50;99.90;;;;;;4994932;28;19925;-42
2023/09/13 05:26:30;;;;;;;;;;;15.50;99.90;;;;;;4994947;28;19968;-43
2023/09/13 05:28:55;;;;;;;;;;;15.50;99.90;;;;;;4994959;28;20016;-43
2023/09/13 05:31:21;;;;;;;;;;;15.40;99.90;;;;;;4994566;28;19991;-42
2023/09/13 05:33:46;;;;;;;;;;;15.40;99.90;;;;;;4994702;28;19921;-43
2023/09/13 05:36:12;;;;;;;;;;;15.40;99.90;;;;;;4994821;28;19921;-43
2023/09/13 05:38:38;;;;;;;;;;;15.40;99.90;;;;;;4994808;28;20016;-43
2023/09/13 05:41:11;;;;;;;;;;;15.50;99.90;;;;;;4994747;28;20042;-44
2023/09/13 05:43:37;;;;;;;;;;;15.40;99.90;;;;;;4994804;28;19928;-44
2023/09/13 05:46:03;;;;;;;;;;;15.40;99.90;;;;;;4977160;28;20272;-45
2023/09/13 05:48:28;;;;;;;;;;;15.40;99.90;;;;;;4994354;28;19928;-43
2023/09/13 05:50:54;;;;;;;;;;;15.40;99.90;;;;;;4994401;28;19980;-45
2023/09/13 05:53:20;;;;;;;;;;;15.40;99.90;;;;;;4994743;28;19928;-43
2023/09/13 05:55:45;;;;;;;;;;;15.30;99.90;;;;;;4994554;28;19921;-42
2023/09/13 05:58:11;;;;;;;;;;;15.30;99.90;;;;;;4994547;28;19977;-43
2023/09/13 06:00:37;;;;;;;;;;;15.30;99.90;;;;;;4992281;28;19929;-44
2023/09/13 06:03:02;;;;;;;;;;;15.30;99.90;;;;;;4994409;28;20305;-44
2023/09/13 06:05:28;;;;;;;;;;;15.20;99.90;;;;;;4994540;28;19921;-43
2023/09/13 06:07:53;;;;;;;;;;;15.20;99.90;;;;;;4994677;28;20025;-44
2023/09/13 06:10:19;;;;;;;;;;;15.20;99.90;;;;;;4994308;28;19922;-44
2023/09/13 06:12:45;;;;;;;;;;;15.20;99.90;;;;;;4994225;28;19929;-44
2023/09/13 06:15:11;;;;;;;;;;;15.20;99.90;;;;;;4994495;28;19922;-45
2023/09/13 06:17:36;;;;;;;;;;;15.20;99.90;;;;;;4994410;28;20426;-43
2023/09/13 06:20:04;;;;;;;;;;;15.20;99.90;;;;;;4994345;28;20402;-43
2023/09/13 06:22:29;;;;;;;;;;;15.20;99.90;;;;;;4994375;28;19921;-44
2023/09/13 06:24:55;;;;;;;;;;;15.20;99.90;;;;;;5013661;28;19922;-43
2023/09/13 06:27:20;;;;;;;;;;;15.20;99.90;;;;;;4998029;28;19922;-44
2023/09/13 06:29:46;;;;;;;;;;;15.20;99.90;;;;;;4997976;28;19925;-44
2023/09/13 06:32:12;;;;;;;;;;;15.20;99.90;;;;;;4997961;28;19921;-43
2023/09/13 06:34:37;;;;;;;;;;;15.20;99.90;;;;;;4998268;28;19926;-44
2023/09/13 06:37:03;;;;;;;;;;;15.20;99.90;;;;;;4998049;28;20406;-44
2023/09/13 06:39:29;;;;;;;;;;;15.10;99.90;;;;;;4998004;28;20275;-44
2023/09/13 06:41:54;;;;;;;;;;;15.20;99.90;;;;;;4997700;28;19967;-43
2023/09/13 06:44:20;;;;;;;;;;;15.20;99.90;;;;;;5013144;28;19922;-44
2023/09/13 06:46:45;;;;;;;;;;;15.20;99.90;;;;;;4997665;28;19929;-43
2023/09/13 06:49:11;;;;;;;;;;;15.20;99.90;;;;;;4997806;28;19936;-43
2023/09/13 06:51:36;;;;;;;;;;;15.20;99.90;;;;;;4997674;28;20310;-43
2023/09/13 06:54:02;;;;;;;;;;;15.20;99.90;;;;;;4997606;28;19925;-43
2023/09/13 06:56:27;;;;;;;;;;;15.20;99.90;;;;;;4997517;28;19926;-43
2023/09/13 06:58:53;;;;;;;;;;;15.20;99.90;;;;;;4997535;28;20377;-43
2023/09/13 07:01:19;;;;;;;;;;;15.20;99.90;;;;;;4993185;28;20250;-43
2023/09/13 07:03:45;;;;;;;;;;;15.20;99.90;;;;;;4997528;28;19921;-43
2023/09/13 07:06:11;;;;;;;;;;;15.10;99.90;;;;;;4997450;28;19989;-44
2023/09/13 07:08:36;;;;;;;;;;;15.10;99.90;;;;;;4997603;28;19922;-43
2023/09/13 07:11:02;;;;;;;;;;;15.10;99.90;;;;;;4997223;28;19944;-43
2023/09/13 07:13:28;;;;;;;;;;;15.10;99.90;;;;;;4997094;28;20012;-44
2023/09/13 07:15:53;;;;;;;;;;;15.10;99.90;;;;;;4997408;28;19933;-43
2023/09/13 07:18:19;;;;;;;;;;;15.10;99.90;;;;;;4997248;28;20267;-43
2023/09/13 07:20:45;;;;;;;;;;;15.10;99.90;;;;;;4997264;28;19921;-43
2023/09/13 07:23:10;;;;;;;;;;;15.10;99.90;;;;;;4980066;28;20382;-43
2023/09/13 07:25:36;;;;;;;;;;;15.10;99.90;;;;;;4997001;28;19921;-43
2023/09/13 07:28:02;;;;;;;;;;;15.10;99.90;;;;;;4996854;28;19921;-43
2023/09/13 07:30:28;;;;;;;;;;;15.20;99.90;;;;;;4997008;28;19925;-43
2023/09/13 07:32:54;;;;;;;;;;;15.20;99.90;;;;;;4996919;28;20024;-43
2023/09/13 07:35:20;;;;;;;;;;;15.20;99.90;;;;;;4996064;28;20371;-43
2023/09/13 07:37:46;;;;;;;;;;;15.20;99.90;;;;;;4979688;28;19921;-43
2023/09/13 07:40:12;;;;;;;;;;;15.20;99.90;;;;;;4996809;28;19921;-43
2023/09/13 07:42:37;;;;;;;;;;;15.20;99.90;;;;;;4996799;28;20264;-43
2023/09/13 07:45:03;;;;;;;;;;;15.20;99.90;;;;;;4996665;28;19921;-43
2023/09/13 07:47:29;;;;;;;;;;;15.20;99.90;;;;;;4996954;28;19975;-43
2023/09/13 07:49:58;;;;;;;;;;;15.20;99.90;;;;;;4996618;28;20008;-43
2023/09/13 07:52:24;;;;;;;;;;;15.20;99.90;;;;;;4996552;28;20421;-42
2023/09/13 07:54:50;;;;;;;;;;;15.20;99.90;;;;;;4996507;28;19925;-43
2023/09/13 07:57:16;;;;;;;;;;;15.30;99.90;;;;;;4996424;28;20016;-43
2023/09/13 07:59:42;;;;;;;;;;;15.30;99.90;;;;;;4996332;28;19929;-43
2023/09/13 08:02:07;;;;;;;;;;;15.30;99.90;;;;;;4996118;28;19947;-43
2023/09/13 08:04:33;;;;;;;;;;;15.30;99.90;;;;;;4996459;28;19929;-43
2023/09/13 08:06:59;;;;;;;;;;;15.40;99.90;;;;;;4996600;28;19926;-43
2023/09/13 08:09:25;;;;;;;;;;;15.30;99.90;;;;;;4996462;28;19976;-43
2023/09/13 08:11:52;;;;;;;;;;;15.30;99.90;;;;;;4996034;28;20437;-43
2023/09/13 08:14:18;;;;;;;;;;;15.40;99.90;;;;;;4996102;28;19926;-44
2023/09/13 08:16:43;;;;;;;;;;;15.40;99.90;;;;;;4995920;28;19922;-44
2023/09/13 08:19:09;;;;;;;;;;;15.40;99.90;;;;;;4996170;28;19968;-43
2023/09/13 08:21:35;;;;;;;;;;;15.40;99.90;;;;;;4995910;28;19922;-42
2023/09/13 08:24:01;;;;;;;;;;;15.40;99.90;;;;;;4996182;28;19925;-43
2023/09/13 08:26:26;;;;;;;;;;;15.50;99.90;;;;;;4995917;28;20334;-43
2023/09/13 08:28:52;;;;;;;;;;;15.50;99.90;;;;;;4995840;28;19964;-43
2023/09/13 08:31:18;;;;;;;;;;;15.60;99.90;;;;;;4995831;28;19926;-42
2023/09/13 08:33:43;;;;;;;;;;;15.60;99.90;;;;;;4995824;28;19921;-42
2023/09/13 08:36:09;;;;;;;;;;;15.70;99.90;;;;;;4996100;28;19928;-43
2023/09/13 08:38:34;;;;;;;;;;;15.70;99.90;;;;;;4995770;28;20283;-42
2023/09/13 08:41:02;;;;;;;;;;;15.70;99.90;;;;;;4995674;28;19925;-42
2023/09/13 08:43:28;;;;;;;;;;;15.80;99.90;;;;;;4995464;28;19925;-42
2023/09/13 08:45:54;;;;;;;;;;;15.80;99.90;;;;;;4978506;28;19937;-43
2023/09/13 08:48:21;;;;;;;;;;;15.80;99.90;;;;;;4995575;28;19922;-43
2023/09/13 08:50:48;;;;;;;;;;;15.80;99.90;;;;;;4995503;28;19922;-43
2023/09/13 08:53:15;;;;;;;;;;;15.90;99.90;;;;;;4995378;28;19921;-42
2023/09/13 08:55:41;;;;;;;;;;;15.90;99.90;;;;;;4995513;28;19926;-42
2023/09/13 08:58:07;;;;;;;;;;;15.90;99.90;;;;;;4978165;28;20398;-43
2023/09/13 09:00:39;;;;;;;;;;;15.90;99.90;;;;;;4995431;28;19926;-42
2023/09/13 09:03:05;;;;;;;;;;;15.90;99.90;;;;;;4993228;28;20359;-43
2023/09/13 09:05:31;;;;;;;;;;;15.90;99.90;;;;;;4995264;28;19929;-43
2023/09/13 09:07:58;;;;;;;;;;;15.90;99.90;;;;;;4978170;28;19922;-43
2023/09/13 09:10:24;;;;;;;;;;;15.90;99.90;;;;;;4995159;28;19973;-43
2023/09/13 09:12:50;;;;;;;;;;;15.80;99.90;;;;;;4994933;28;19973;-43
2023/09/13 09:15:17;;;;;;;;;;;15.80;99.90;;;;;;4995525;28;19921;-43
2023/09/13 09:17:44;;;;;;;;;;;15.80;99.90;;;;;;4995060;28;19990;-43
2023/09/13 09:20:10;;;;;;;;;;;15.80;99.90;;;;;;4977829;28;19929;-43
2023/09/13 09:22:36;;;;;;;;;;;15.70;99.90;;;;;;4995019;28;19922;-43
2023/09/13 09:25:02;;;;;;;;;;;15.80;99.90;;;;;;4994906;28;19951;-43
2023/09/13 09:27:28;;;;;;;;;;;15.80;99.90;;;;;;4977568;28;19948;-43
2023/09/13 09:30:01;;;;;;;;;;;15.70;99.90;;;;;;4995345;28;19925;-44
2023/09/13 09:32:27;;;;;;;;;;;15.80;99.90;;;;;;4994774;28;19922;-42
2023/09/13 09:34:55;;;;;;;;;;;15.80;99.90;;;;;;4994838;28;19969;-43
2023/09/13 09:37:27;;;;;;;;;;;15.80;99.90;;;;;;4994770;28;20020;-43
2023/09/13 09:39:53;;;;;;;;;;;15.80;99.90;;;;;;4994668;28;19921;-44
2023/09/13 09:42:18;;;;;;;;;;;15.80;99.90;;;;;;4995043;28;20321;-43
2023/09/13 09:44:44;;;;;;;;;;;15.80;99.90;;;;;;4994625;28;19922;-42
2023/09/13 09:47:16;;;;;;;;;;;15.80;99.90;;;;;;4994649;28;20374;-42
2023/09/13 09:49:43;;;;;;;;;;;15.80;99.90;;;;;;4994472;28;19926;-43
2023/09/13 09:52:10;;;;;;;;;;;15.80;99.90;;;;;;4994478;28;20306;-43
2023/09/13 09:54:37;;;;;;;;;;;15.90;99.90;;;;;;4994460;28;19969;-42
2023/09/13 09:57:03;;;;;;;;;;;15.90;99.90;;;;;;4994596;28;19926;-43
2023/09/13 09:59:32;;;;;;;;;;;16.00;99.90;;;;;;5000440;28;19965;-43
2023/09/13 10:01:58;;;;;;;;;;;16.00;99.90;;;;;;4994590;28;20371;-42
2023/09/13 10:04:24;;;;;;;;;;;16.10;99.90;;;;;;5001201;28;19968;-43
2023/09/13 10:07:03;;;;;;;;;;;16.20;99.90;;;;;;5001043;28;19925;-44
2023/09/13 10:09:39;;;;;;;;;;;16.30;99.90;;;;;;5000977;28;20013;-43
2023/09/13 10:12:05;;;;;;;;;;;16.30;99.90;;;;;;5000763;28;20318;-43
2023/09/13 10:14:32;;;;;;;;;;;16.40;99.90;;;;;;5000954;28;19929;-42
2023/09/13 10:16:57;;;;;;;;;;;16.40;99.90;;;;;;5000789;28;20311;-43
2023/09/13 10:19:28;;;;;;;;;;;16.50;99.90;;;;;;5000839;28;19969;-43
2023/09/13 10:21:54;;;;;;;;;;;16.50;99.90;;;;;;5000916;28;19976;-43
2023/09/13 10:24:20;;;;;;;;;;;16.50;99.90;;;;;;5001079;28;19925;-43
2023/09/13 10:26:46;;;;;;;;;;;16.60;99.90;;;;;;5000887;28;19922;-43
2023/09/13 10:29:17;;;;;;;;;;;16.60;99.90;;;;;;5000694;28;19968;-43
2023/09/13 10:31:47;;;;;;;;;;;16.70;99.90;;;;;;4983589;28;19922;-42
2023/09/13 10:34:18;;;;;;;;;;;16.80;99.90;;;;;;5000544;28;19925;-43
2023/09/13 10:36:47;;;;;;;;;;;16.80;99.90;;;;;;5000828;28;20499;-43
2023/09/13 10:39:18;;;;;;;;;;;17.00;99.90;;;;;;5000813;28;20019;-43
2023/09/13 10:41:54;;;;;;;;;;;17.10;99.90;;;;;;4983310;28;20358;-43
2023/09/13 10:44:20;;;;;;;;;;;17.10;99.90;;;;;;5000668;28;19965;-43
2023/09/13 10:46:46;;;;;;;;;;;17.20;99.90;;;;;;5000345;28;20024;-44
2023/09/13 10:49:12;;;;;;;;;;;17.20;99.90;;;;;;5000697;28;19929;-43
2023/09/13 10:51:39;;;;;;;;;;;17.20;99.90;;;;;;5000582;28;19926;-43
2023/09/13 10:54:04;;;;;;;;;;;17.10;99.90;;;;;;4983309;28;19926;-42
2023/09/13 10:56:31;;;;;;;;;;;17.20;99.90;;;;;;5000592;28;19976;-44
2023/09/13 10:58:58;;;;;;;;;;;17.30;99.90;;;;;;5000548;28;19922;-43
2023/09/13 11:01:27;;;;;;;;;;;17.40;99.90;;;;;;5000307;28;20458;-43
2023/09/13 11:03:53;;;;;;;;;;;17.50;99.90;;;;;;5000500;28;19921;-43
2023/09/13 11:06:19;;;;;;;;;;;17.50;99.90;;;;;;5000496;28;19976;-44
2023/09/13 11:08:45;;;;;;;;;;;17.60;99.90;;;;;;5000288;28;19921;-44
2023/09/13 11:11:18;;;;;;;;;;;17.70;99.90;;;;;;4996143;28;19964;-44
2023/09/13 11:13:45;;;;;;;;;;;17.70;99.90;;;;;;4980148;28;19988;-43
2023/09/13 11:16:13;;;;;;;;;;;17.80;99.90;;;;;;4997405;28;19957;-43
2023/09/13 11:18:52;;;;;;;;;;;17.80;99.90;;;;;;4997339;28;19928;-43
2023/09/13 11:21:28;;;;;;;;;;;17.70;99.90;;;;;;4997129;28;19925;-43
2023/09/13 11:23:54;;;;;;;;;;;17.80;99.90;;;;;;4997153;28;19925;-43
2023/09/13 11:26:38;;;;;;;;;;;17.90;99.90;;;;;;4996874;28;19929;-44
2023/09/13 11:29:19;;;;;;;;;;;18.00;99.90;;;;;;4997126;28;19921;-43
2023/09/13 11:31:57;;;;;;;;;;;18.20;99.90;;;;;;4996972;28;19929;-43
2023/09/13 11:34:23;;;;;;;;;;;18.20;99.90;;;;;;4996985;28;20038;-44
2023/09/13 11:37:04;;;;;;;;;;;18.00;99.90;;;;;;4996746;28;19925;-43
2023/09/13 11:39:29;;;;;;;;;;;18.10;99.90;;;;;;4996956;28;20389;-42
2023/09/13 11:41:55;;;;;;;;;;;18.00;99.90;;;;;;4996899;28;19921;-43
2023/09/13 11:44:21;;;;;;;;;;;18.00;99.90;;;;;;4996791;28;19929;-44
2023/09/13 11:46:48;;;;;;;;;;;18.00;99.90;;;;;;4996655;28;20338;-43
2023/09/13 11:49:24;;;;;;;;;;;18.00;99.90;;;;;;4996491;28;20287;-44
2023/09/13 11:51:51;;;;;;;;;;;17.90;99.90;;;;;;4996612;28;19921;-44
2023/09/13 11:54:17;;;;;;;;;;;17.90;99.90;;;;;;4996629;28;19977;-43
2023/09/13 11:56:45;;;;;;;;;;;17.80;99.90;;;;;;4996509;28;19976;-44
2023/09/13 11:59:12;;;;;;;;;;;17.80;99.90;;;;;;4996627;28;19922;-44
2023/09/13 12:01:45;;;;;;;;;;;17.70;99.90;;;;;;4996291;28;20386;-44
2023/09/13 12:04:11;;;;;;;;;;;17.60;99.90;;;;;;4996443;28;19929;-44
2023/09/13 12:06:46;;;;;;;;;;;17.60;99.90;;;;;;4996287;28;20029;-44
2023/09/13 12:09:21;;;;;;;;;;;17.50;99.90;;;;;;4996383;28;19928;-45
2023/09/13 12:11:51;;;;;;;;;;;17.60;99.90;;;;;;4996137;28;19922;-43
2023/09/13 12:14:17;;;;;;;;;;;17.50;99.90;;;;;;4996139;28;19976;-44
2023/09/13 12:16:43;;;;;;;;;;;17.50;99.90;;;;;;4996269;28;19921;-44
2023/09/13 12:19:10;;;;;;;;;;;17.50;99.90;;;;;;4996165;28;19928;-43
2023/09/13 12:21:36;;;;;;;;;;;17.60;99.90;;;;;;4995845;28;19921;-43
2023/09/13 12:24:02;;;;;;;;;;;17.80;99.90;;;;;;4978791;28;20319;-44
2023/09/13 12:26:28;;;;;;;;;;;17.90;99.90;;;;;;4995958;28;19926;-45
2023/09/13 12:28:53;;;;;;;;;;;18.00;99.90;;;;;;4995962;28;19972;-45
2023/09/13 12:31:20;;;;;;;;;;;17.90;99.90;;;;;;4995922;28;19922;-44
2023/09/13 12:33:51;;;;;;;;;;;17.80;99.90;;;;;;4995893;28;20338;-44
2023/09/13 12:36:17;;;;;;;;;;;17.60;99.90;;;;;;4995857;28;20369;-43
2023/09/13 12:38:42;;;;;;;;;;;17.40;99.90;;;;;;4995720;28;19977;-47
2023/09/13 12:41:09;;;;;;;;;;;17.30;99.90;;;;;;4995620;28;19972;-44
2023/09/13 12:43:39;;;;;;;;;;;17.20;99.90;;;;;;4995721;28;19921;-44
2023/09/13 12:46:06;;;;;;;;;;;17.10;99.90;;;;;;4996104;28;19922;-44
2023/09/13 12:48:32;;;;;;;;;;;17.10;99.90;;;;;;4995565;28;19922;-43
2023/09/13 12:51:01;;;;;;;;;;;17.10;99.90;;;;;;4995553;28;19940;-44
2023/09/13 12:53:30;;;;;;;;;;;17.00;99.90;;;;;;4995456;28;19921;-43
2023/09/13 12:55:56;;;;;;;;;;;17.00;99.90;;;;;;4995174;28;19922;-44
2023/09/13 12:58:22;;;;;;;;;;;17.10;99.90;;;;;;4995445;28;19929;-44
2023/09/13 13:00:51;;;;;;;;;;;17.10;99.90;;;;;;4995248;28;19932;-43
2023/09/13 13:03:17;;;;;;;;;;;17.10;99.90;;;;;;4995298;28;19921;-44
2023/09/13 13:05:44;;;;;;;;;;;17.10;99.90;;;;;;4995579;28;19929;-43
2023/09/13 13:08:09;;;;;;;;;;;17.10;99.90;;;;;;4995091;28;19922;-43
2023/09/13 13:10:54;;;;;;;;;;;17.20;99.90;;;;;;4994971;28;19963;-44
2023/09/13 13:13:20;;;;;;;;;;;17.20;99.90;;;;;;4977716;28;19922;-43
2023/09/13 13:15:46;;;;;;;;;;;17.20;99.90;;;;;;4995065;28;20020;-43
2023/09/13 13:18:12;;;;;;;;;;;17.20;99.90;;;;;;4994992;28;19972;-44
2023/09/13 13:20:43;;;;;;;;;;;17.20;99.90;;;;;;4994948;28;20445;-43
2023/09/13 13:23:08;;;;;;;;;;;17.20;99.90;;;;;;4994721;28;19922;-44
2023/09/13 13:25:34;;;;;;;;;;;17.20;99.90;;;;;;4995000;28;20021;-43
2023/09/13 13:27:59;;;;;;;;;;;17.20;99.90;;;;;;4994975;28;19944;-43
2023/09/13 13:30:25;;;;;;;;;;;17.20;99.90;;;;;;4994927;28;19928;-43
2023/09/13 13:32:51;;;;;;;;;;;17.20;99.90;;;;;;4994139;28;19929;-44
2023/09/13 13:35:16;;;;;;;;;;;17.20;99.90;;;;;;4994768;28;20423;-42
2023/09/13 13:37:45;;;;;;;;;;;17.20;99.90;;;;;;4994577;28;19921;-44
2023/09/13 13:40:11;;;;;;;;;;;17.20;99.90;;;;;;4994892;28;19922;-44
2023/09/13 13:42:36;;;;;;;;;;;17.20;99.90;;;;;;4994829;28;20295;-45
2023/09/13 13:45:02;;;;;;;;;;;17.20;99.90;;;;;;4994563;28;20382;-44
2023/09/13 13:47:28;;;;;;;;;;;17.30;99.90;;;;;;4994716;28;19926;-44
2023/09/13 13:49:53;;;;;;;;;;;17.30;99.90;;;;;;4994507;28;19932;-43
2023/09/13 13:52:19;;;;;;;;;;;17.30;99.90;;;;;;5009723;28;19928;-44
2023/09/13 13:54:45;;;;;;;;;;;17.30;99.90;;;;;;4994536;28;20294;-44
2023/09/13 13:57:12;;;;;;;;;;;17.30;99.90;;;;;;4994617;28;19921;-43
2023/09/13 13:59:37;;;;;;;;;;;17.30;99.90;;;;;;4994588;28;19929;-45
2023/09/13 14:02:03;;;;;;;;;;;17.30;99.90;;;;;;4994426;28;19921;-43
2023/09/13 14:04:29;;;;;;;;;;;17.30;99.90;;;;;;4994542;28;19925;-43
2023/09/13 14:06:55;;;;;;;;;;;17.40;99.90;;;;;;4994289;28;19922;-44
2023/09/13 14:09:20;;;;;;;;;;;17.40;99.90;;;;;;4994260;28;19929;-44
2023/09/13 14:11:46;;;;;;;;;;;17.50;99.90;;;;;;5009817;28;19922;-45
2023/09/13 14:14:18;;;;;;;;;;;17.50;99.90;;;;;;4977472;28;20283;-44